Atlanta, Georgia
Traffic Map
Current Weather Conditions
Atlanta, Georgia
Scattered Clouds
Scattered Clouds
82°
Feels Like: 83°
Wind Chill: 82° Ceiling: Unl
Heat Index: 83° Visibility: 10mi
Dew Point: 64° Wind: 5mph
Humidity: 54% Direction: ° ()
Pressure: 30.02in Gusts: 0mph
Raw Report DataKATL 261552Z VRB04KT 10SM SCT040 28/18 A3002 RMK AO2 SLP155 T02780178
Traffic Incident Summary
Active as of:
Severity:
Category:
InformationThere was an issue retrieving the traffic information for this location. Please try a different location or try again shortly.
Advertisements